Aeroporto :
LOGIN :

Iscrizione | Disclaimer

   EN    FR    IT 

 










Sommario :    VFR   VFR Marginale   IFR   IFR Intensivo   IFR Molto Intensivo
Visibilità : 
Base nubi : 
>= 8 km
>= 3000ft
5 / 8 km
1000 / 3000 ft
1500m / 5 km
500 / 1000 ft
800 / 1500m
200 / 500 ft
< 800m
< 200 ft
Simboli :   Temporali  Nebbia  Neve Forte  Precipitazioni Forti  Vento > 20 kt
SIGMETs :   Varie  Temporali  Ghiacco  Turbolenza  Onda orograficha  Ceneri Vulcaniche






- Altitudine del aeroporto : 646 ft
- Codice IATA : VNO


EYVI - Vilnius int.

ULTIMO METAR :
  • 271820Z 17010KT 8000 SCT010 BKN096 12/10 Q1013 NOSIG

METARs OBSOLETI :
  • 271750Z 17011KT 8000 SCT011 BKN094 12/10 Q1013 NOSIG
  • 271720Z 17011KT 9000 SCT012 BKN091 12/10 Q1013 NOSIG
  • 271650Z 17011KT 9000 BKN016 BKN089 12/10 Q1013 NOSIG
  • 271620Z 17012KT 9000 BKN019 12/10 Q1013 NOSIG
  • 271550Z 16012KT 9000 BKN011 12/10 Q1013 NOSIG

TAF TAF EYVI
Valido dal 27 a 18 ore il 28 a 18 ore UTC


271712Z 2718/2818 18010KT 7000 BKN010 OVC015
BECMG 2721/2722 BKN005 OVC010
BECMG 2722/2723 5000 BR OVC005
TEMPO 2723/2808 1500 DZ OVC003
PROB40
TEMPO 2801/2808 0600 FG VV002



MetMap, La meteo Aeronautica in un colpo d'occhio ! - Copyright ORBIFLY Dicembre 2007 - Disclaimer

ORBIFLY MET'MAP TEAM :

Programmazione e sviluppo : Alexandra Zaïnal
Concezione : Baudouin d'Aumeries
Aiuto per la programmazione : Marc-Olivier Méhu
Supporto tecnico e logistico : Manuel Goepfert
Aiuto per la traduzione : Arnaldo La Scala

Contatto : metmap@orbifly.com




FONTI E CREDITI :

   NOAA